Brest, Belarus
Current Conditions -  °F | °C
As of 7:30 AM on Tuesday 27 Jan 2015 (Local Time) from UMBB Reporting Station
Haze Haze  
Wind Chill: 30°   Ceiling: 500
Heat Index: 30°   Visibility: 1.3mi
Dew Point: 30°   Wind: 2mph
Humidity: 100%   Direction: 140°SE
Pressure: 29.94"   Gusts: NA
Location:  52.12°N, 23.68°E
Report Text: UMBB 270530Z 14001MPS 2100 BR OVC005CB M01/M01 Q1014 NOSIG RMKQBB170
Loading
Personal Weather Stations






























Interactive Weather Map New forecast layout! Learn more

10-Day Weather Forecast

Advertisements
Track Severe Weather on mobile